Grimstrup, Denmark
Current Conditions -  °F | °C
As of 6:50 AM on Thursday 27 Nov 2014 (Local Time) from EKEB Reporting Station
Clear Clear  
Wind Chill: -1°   Ceiling: Unl
Heat Index:   Visibility: 6mi
Dew Point:   Wind: 10mph
Humidity: 87%   Direction: 90°E
Pressure: 29.97"   Gusts: NA
Location:  55.53°N, 8.66°E
Report Text: EKEB 270550Z AUTO 09009KT 9999NDV NCD 03/01 Q1015
Loading
Personal Weather Stations






























Interactive Weather Map New forecast layout! Learn more

10-Day Weather Forecast

Advertisements
Track Severe Weather on mobile